createdAt,value
2022-11-17T00:02:03.079Z,8.51
2022-11-17T00:04:32.253Z,8.49
2022-11-17T00:07:02.051Z,8.45
2022-11-17T00:09:31.260Z,8.42
2022-11-17T00:12:22.315Z,8.33
2022-11-17T00:14:51.998Z,8.29
2022-11-17T00:17:20.835Z,8.24
2022-11-17T00:20:06.729Z,8.19
2022-11-17T00:22:37.190Z,8.15
2022-11-17T00:25:06.331Z,8.16
2022-11-17T00:27:35.786Z,8.20
2022-11-17T00:30:04.687Z,8.24
2022-11-17T00:32:51.507Z,8.21
2022-11-17T00:35:19.906Z,8.35
2022-11-17T00:38:04.583Z,8.26
2022-11-17T00:40:33.280Z,8.24
2022-11-17T00:43:01.708Z,8.22
2022-11-17T00:45:30.583Z,8.22
2022-11-17T00:47:59.312Z,8.20
2022-11-17T00:50:27.710Z,8.19
2022-11-17T00:52:58.057Z,8.23
2022-11-17T00:55:27.013Z,8.33
2022-11-17T00:57:55.569Z,8.30
2022-11-17T01:00:24.975Z,8.36
2022-11-17T01:02:53.991Z,8.37
2022-11-17T01:05:22.402Z,8.41
2022-11-17T01:07:51.477Z,8.36
2022-11-17T01:10:21.315Z,8.46
2022-11-17T01:12:50.622Z,8.41
2022-11-17T01:15:19.316Z,8.45
2022-11-17T01:17:48.203Z,8.47
2022-11-17T01:20:17.239Z,8.54
2022-11-17T01:22:46.225Z,8.51
2022-11-17T01:25:15.390Z,8.43
2022-11-17T01:27:45.454Z,8.48
2022-11-17T01:30:15.452Z,8.50
2022-11-17T01:32:43.991Z,8.50
2022-11-17T01:35:13.072Z,8.40
2022-11-17T01:37:41.798Z,8.37
2022-11-17T01:40:14.535Z,8.34
2022-11-17T01:42:42.971Z,8.35
2022-11-17T01:45:20.930Z,8.26
2022-11-17T01:47:51.810Z,8.26
2022-11-17T01:50:34.946Z,8.21
2022-11-17T01:53:06.878Z,8.32
2022-11-17T01:55:39.514Z,8.26
2022-11-17T01:58:12.124Z,8.23
2022-11-17T02:00:42.227Z,8.23
2022-11-17T02:03:11.658Z,8.15
2022-11-17T02:05:46.525Z,7.89
2022-11-17T02:08:17.463Z,8.05
2022-11-17T02:10:51.506Z,8.10
2022-11-17T02:13:21.920Z,7.97
2022-11-17T02:15:51.884Z,7.96
2022-11-17T02:18:21.603Z,7.93
2022-11-17T02:20:59.447Z,7.98
2022-11-17T02:24:01.741Z,8.01
2022-11-17T02:26:46.308Z,8.00
2022-11-17T02:29:22.666Z,7.95
2022-11-17T02:31:58.226Z,7.93
2022-11-17T02:34:35.349Z,7.91
2022-11-17T02:37:11.233Z,7.90
2022-11-17T02:39:45.716Z,7.80
2022-11-17T02:42:44.101Z,7.95
2022-11-17T02:45:18.272Z,7.90
2022-11-17T02:47:49.215Z,7.86
2022-11-17T02:50:26.799Z,7.87
2022-11-17T02:52:57.244Z,7.85
2022-11-17T02:55:25.784Z,7.94
2022-11-17T02:57:55.195Z,7.97
2022-11-17T03:00:25.477Z,8.02
2022-11-17T03:03:21.031Z,8.03
2022-11-17T03:05:59.669Z,8.01
2022-11-17T03:08:37.533Z,8.03
2022-11-17T03:11:08.629Z,7.96
2022-11-17T03:13:47.467Z,7.94
2022-11-17T03:16:26.781Z,7.96
2022-11-17T03:19:06.222Z,7.98
2022-11-17T03:21:39.429Z,7.93
2022-11-17T03:24:14.539Z,7.87
2022-11-17T03:26:48.677Z,7.81
2022-11-17T03:29:21.374Z,7.83
2022-11-17T03:31:58.137Z,7.85
2022-11-17T03:34:30.527Z,7.87
2022-11-17T03:37:04.699Z,7.99
2022-11-17T03:39:35.407Z,8.06
2022-11-17T03:42:09.884Z,8.03
2022-11-17T03:44:43.322Z,7.97
2022-11-17T03:47:15.568Z,7.97
2022-11-17T03:49:50.856Z,7.85
2022-11-17T03:52:20.843Z,8.03
2022-11-17T03:54:49.511Z,8.00
2022-11-17T03:57:26.409Z,7.86
2022-11-17T04:00:01.897Z,7.79
2022-11-17T04:02:43.575Z,7.93
2022-11-17T04:05:13.794Z,7.92
2022-11-17T04:07:44.562Z,7.98
2022-11-17T04:10:15.310Z,7.85
2022-11-17T04:13:01.919Z,8.02
2022-11-17T04:15:47.911Z,7.97
2022-11-17T04:18:18.059Z,8.01
2022-11-17T04:20:47.785Z,7.94
2022-11-17T04:23:17.274Z,7.65
2022-11-17T04:26:04.684Z,7.84
2022-11-17T04:28:38.412Z,7.87
2022-11-17T04:31:10.212Z,7.78
2022-11-17T04:33:41.771Z,7.80
2022-11-17T04:36:11.901Z,7.85
2022-11-17T04:38:43.046Z,7.90
2022-11-17T04:41:42.616Z,7.87
2022-11-17T04:44:13.670Z,7.87
2022-11-17T04:46:44.377Z,7.87
2022-11-17T04:49:15.354Z,7.94
2022-11-17T04:51:44.127Z,7.95
2022-11-17T04:54:15.056Z,7.94
2022-11-17T04:56:43.972Z,7.84
2022-11-17T04:59:13.354Z,7.77
2022-11-17T05:01:41.933Z,7.77
2022-11-17T05:04:12.504Z,7.72
2022-11-17T05:06:44.324Z,7.68
2022-11-17T05:09:15.180Z,7.62
2022-11-17T05:12:02.143Z,7.61
2022-11-17T05:14:31.545Z,7.57
2022-11-17T05:17:11.205Z,7.56
2022-11-17T05:19:42.648Z,7.55
2022-11-17T05:22:32.321Z,7.55
2022-11-17T05:25:00.770Z,7.52
2022-11-17T05:27:29.804Z,7.65
2022-11-17T05:29:58.649Z,7.68
2022-11-17T05:32:27.704Z,7.66
2022-11-17T05:34:56.298Z,7.68
2022-11-17T05:37:26.129Z,7.62
2022-11-17T05:39:54.923Z,7.66
2022-11-17T05:42:23.775Z,7.68
2022-11-17T05:44:52.271Z,7.69
2022-11-17T05:47:21.137Z,7.63
2022-11-17T05:49:49.559Z,7.62
2022-11-17T05:52:18.552Z,7.61
2022-11-17T05:54:48.358Z,7.62
2022-11-17T05:57:21.592Z,7.62
2022-11-17T05:59:55.451Z,7.68
2022-11-17T06:02:27.841Z,7.72
2022-11-17T06:04:57.018Z,7.72
2022-11-17T06:07:25.717Z,7.74
2022-11-17T06:09:56.046Z,7.75
2022-11-17T06:12:24.500Z,7.70
2022-11-17T06:14:53.455Z,7.77
2022-11-17T06:17:25.872Z,7.78
2022-11-17T06:19:58.330Z,7.76
2022-11-17T06:22:28.030Z,7.84
2022-11-17T06:24:59.687Z,7.90
2022-11-17T06:27:29.655Z,7.97
2022-11-17T06:30:01.650Z,8.01
2022-11-17T06:32:30.862Z,7.90
2022-11-17T06:35:00.849Z,7.79
2022-11-17T06:37:29.316Z,7.82
2022-11-17T06:39:59.659Z,7.80
2022-11-17T06:42:42.484Z,7.80
2022-11-17T06:45:12.255Z,7.82
2022-11-17T06:47:41.567Z,7.74
2022-11-17T06:50:11.697Z,7.71
2022-11-17T06:52:40.235Z,7.63
2022-11-17T06:55:11.332Z,7.59
2022-11-17T06:57:40.851Z,7.52
2022-11-17T07:00:10.943Z,7.49
2022-11-17T07:02:39.899Z,7.21
2022-11-17T07:05:08.923Z,7.43
2022-11-17T07:07:38.057Z,7.38
2022-11-17T07:10:07.319Z,7.41
2022-11-17T07:12:37.886Z,7.39
2022-11-17T07:15:07.247Z,7.30
2022-11-17T07:17:35.787Z,7.41
2022-11-17T07:20:06.009Z,7.42
2022-11-17T07:22:35.355Z,7.42
2022-11-17T07:25:04.781Z,7.36
2022-11-17T07:27:33.316Z,7.29
2022-11-17T07:30:04.905Z,7.51
2022-11-17T07:32:33.911Z,7.62
2022-11-17T07:35:05.879Z,7.69
2022-11-17T07:37:36.353Z,7.74
2022-11-17T07:40:05.853Z,7.71
2022-11-17T07:42:34.355Z,7.64
2022-11-17T07:45:10.294Z,7.46
2022-11-17T07:47:40.278Z,7.56
2022-11-17T07:50:09.389Z,7.43
2022-11-17T07:52:41.448Z,7.47
2022-11-17T07:55:11.112Z,7.42
2022-11-17T07:57:39.604Z,7.62
2022-11-17T08:00:11.639Z,7.63
2022-11-17T08:02:42.815Z,7.62
2022-11-17T08:05:11.795Z,7.68
2022-11-17T08:07:40.879Z,7.75
2022-11-17T08:10:10.154Z,7.83
2022-11-17T08:12:38.850Z,7.90
2022-11-17T08:15:09.063Z,7.84
2022-11-17T08:17:39.433Z,7.83
2022-11-17T08:20:08.901Z,7.72
2022-11-17T08:22:37.847Z,7.66
2022-11-17T08:25:07.231Z,7.53
2022-11-17T08:27:36.628Z,7.49
2022-11-17T08:30:07.666Z,7.70
2022-11-17T08:32:37.417Z,7.86
2022-11-17T08:35:08.238Z,7.81
2022-11-17T08:37:37.363Z,7.74
2022-11-17T08:40:07.173Z,7.57
2022-11-17T08:42:35.659Z,7.59
2022-11-17T08:45:04.513Z,7.58
2022-11-17T08:47:33.138Z,7.47
2022-11-17T08:50:02.118Z,7.45
2022-11-17T08:52:32.552Z,7.47
2022-11-17T08:55:02.124Z,7.42
2022-11-17T08:57:31.665Z,7.41
2022-11-17T09:00:00.209Z,7.41
2022-11-17T09:02:29.483Z,7.45
2022-11-17T09:04:58.011Z,7.52
2022-11-17T09:07:30.646Z,7.61
2022-11-17T09:10:06.518Z,7.73
2022-11-17T09:12:35.024Z,7.77
2022-11-17T09:15:03.840Z,7.72
2022-11-17T09:17:32.903Z,7.76
2022-11-17T09:20:01.630Z,7.83
2022-11-17T09:22:30.677Z,7.82
2022-11-17T09:24:59.144Z,7.91
2022-11-17T09:27:29.896Z,7.85
2022-11-17T09:29:58.393Z,7.89
2022-11-17T09:32:27.705Z,7.92
2022-11-17T09:34:56.293Z,7.98
2022-11-17T09:37:26.462Z,8.00
2022-11-17T09:39:55.466Z,7.92
2022-11-17T09:42:24.182Z,8.14
2022-11-17T09:44:58.793Z,8.19
2022-11-17T09:47:35.580Z,8.21
2022-11-17T09:50:06.763Z,8.33
2022-11-17T09:52:44.063Z,8.70
2022-11-17T09:55:29.692Z,8.91
2022-11-17T09:58:16.595Z,9.14
2022-11-17T10:00:52.154Z,9.22
2022-11-17T10:03:23.006Z,9.49
2022-11-17T10:05:53.235Z,9.75
2022-11-17T10:08:32.729Z,9.95
2022-11-17T10:11:21.773Z,10.19
2022-11-17T10:13:51.668Z,10.60
2022-11-17T10:16:21.633Z,10.37
2022-11-17T10:18:50.138Z,10.23
2022-11-17T10:21:18.606Z,10.02
2022-11-17T10:23:56.237Z,10.00
2022-11-17T10:26:25.483Z,10.01
2022-11-17T10:29:08.921Z,9.88
2022-11-17T10:31:44.374Z,9.63
2022-11-17T10:34:26.822Z,9.80
2022-11-17T10:37:03.213Z,9.77
2022-11-17T10:39:40.474Z,9.69
2022-11-17T10:42:23.240Z,9.72
2022-11-17T10:44:55.730Z,9.83
2022-11-17T10:47:32.080Z,9.85
2022-11-17T10:50:15.701Z,9.88
2022-11-17T10:52:45.153Z,9.94
2022-11-17T10:55:35.300Z,9.98
2022-11-17T10:58:19.184Z,9.99
2022-11-17T11:00:55.295Z,10.04
2022-11-17T11:03:27.375Z,9.95
2022-11-17T11:06:02.505Z,10.19
2022-11-17T11:08:39.799Z,10.23
2022-11-17T11:11:15.292Z,10.23
2022-11-17T11:13:50.475Z,10.36
2022-11-17T11:16:19.101Z,10.40
2022-11-17T11:18:50.712Z,10.33
2022-11-17T11:21:35.246Z,10.47
2022-11-17T11:24:15.562Z,10.48
2022-11-17T11:26:52.154Z,10.45
2022-11-17T11:29:31.080Z,10.45
2022-11-17T11:32:16.556Z,10.39
2022-11-17T11:35:25.501Z,10.38
2022-11-17T11:38:04.879Z,10.44
2022-11-17T11:40:38.370Z,10.55
2022-11-17T11:43:22.704Z,10.61
2022-11-17T11:46:01.402Z,10.59
2022-11-17T11:48:33.825Z,10.68
2022-11-17T11:51:06.419Z,10.66
2022-11-17T11:53:47.768Z,10.61
2022-11-17T11:56:20.884Z,10.53
2022-11-17T11:58:55.401Z,10.48
2022-11-17T12:01:25.217Z,10.53
2022-11-17T12:04:05.457Z,10.51
2022-11-17T12:06:42.088Z,10.55
2022-11-17T12:09:42.504Z,10.49
2022-11-17T12:12:17.434Z,10.36
2022-11-17T12:15:11.022Z,10.31
2022-11-17T12:17:54.886Z,10.05
2022-11-17T12:20:55.763Z,10.20
2022-11-17T12:23:35.862Z,10.19
2022-11-17T12:26:06.696Z,10.35
2022-11-17T12:28:37.301Z,10.44
2022-11-17T12:31:10.387Z,10.63
2022-11-17T12:34:26.593Z,10.78
2022-11-17T12:37:28.463Z,10.87
2022-11-17T12:40:02.663Z,10.80
2022-11-17T12:42:34.824Z,10.73
2022-11-17T12:45:08.469Z,10.68
2022-11-17T12:47:39.150Z,10.61
2022-11-17T12:50:46.685Z,10.92
2022-11-17T12:53:25.873Z,10.95
2022-11-17T12:56:25.002Z,10.98
2022-11-17T12:59:02.253Z,10.99
2022-11-17T13:01:41.027Z,10.95
2022-11-17T13:04:13.147Z,10.96
2022-11-17T13:07:00.279Z,11.53
2022-11-17T13:09:30.610Z,12.05
2022-11-17T13:12:04.321Z,12.39
2022-11-17T13:14:36.611Z,12.23
2022-11-17T13:17:05.083Z,12.25
2022-11-17T13:19:37.681Z,12.52
2022-11-17T13:22:14.655Z,12.68
2022-11-17T13:24:45.956Z,12.62
2022-11-17T13:27:22.966Z,12.73
2022-11-17T13:29:53.560Z,12.57
2022-11-17T13:32:24.828Z,12.27
2022-11-17T13:34:56.561Z,12.09
2022-11-17T13:37:27.464Z,12.07
2022-11-17T13:39:58.485Z,12.15
2022-11-17T13:42:30.851Z,12.38
2022-11-17T13:45:04.295Z,12.58
2022-11-17T13:47:46.409Z,12.59
2022-11-17T13:50:37.213Z,12.49
2022-11-17T13:53:25.841Z,12.40
2022-11-17T13:55:54.681Z,12.36
2022-11-17T13:58:38.569Z,12.42
2022-11-17T14:01:13.369Z,12.72
2022-11-17T14:03:45.098Z,13.17
2022-11-17T14:06:15.414Z,13.61
2022-11-17T14:09:02.673Z,13.88
2022-11-17T14:11:31.824Z,14.12
2022-11-17T14:14:01.338Z,14.02
2022-11-17T14:16:38.570Z,14.25
2022-11-17T14:19:26.927Z,14.57
2022-11-17T14:22:00.950Z,14.64
2022-11-17T14:24:30.045Z,14.67
2022-11-17T14:26:59.267Z,14.27
2022-11-17T14:29:29.761Z,13.95
2022-11-17T14:32:00.071Z,13.78
2022-11-17T14:34:29.005Z,13.73
2022-11-17T14:36:57.595Z,13.72
2022-11-17T14:39:26.509Z,13.55
2022-11-17T14:41:54.983Z,13.45
2022-11-17T14:44:24.103Z,13.28
2022-11-17T14:46:52.540Z,13.10
2022-11-17T14:49:22.894Z,12.90
2022-11-17T14:51:51.916Z,12.67
2022-11-17T14:54:20.357Z,12.50
2022-11-17T14:56:49.357Z,12.36
2022-11-17T14:59:18.270Z,12.15
2022-11-17T15:01:47.385Z,12.03
2022-11-17T15:04:48.169Z,11.94
2022-11-17T15:07:07.631Z,11.87
2022-11-17T15:09:36.119Z,11.78
2022-11-17T15:12:05.558Z,11.60
2022-11-17T15:14:34.444Z,11.53
2022-11-17T15:17:03.341Z,11.47
2022-11-17T15:19:32.158Z,11.39
2022-11-17T15:22:00.742Z,11.32
2022-11-17T15:24:30.594Z,11.27
2022-11-17T15:26:59.780Z,11.19
2022-11-17T15:29:28.241Z,11.14
2022-11-17T15:31:57.275Z,11.11
2022-11-17T15:34:25.807Z,11.03
2022-11-17T15:36:54.805Z,10.90
2022-11-17T15:39:23.332Z,10.87
2022-11-17T15:41:53.655Z,10.87
2022-11-17T15:44:22.582Z,10.88
2022-11-17T15:46:51.510Z,10.92
2022-11-17T15:49:20.029Z,10.75
2022-11-17T15:51:49.006Z,10.71
2022-11-17T15:54:20.824Z,10.59
2022-11-17T15:56:50.836Z,10.64
2022-11-17T15:59:20.945Z,10.58
2022-11-17T16:01:49.704Z,10.45
2022-11-17T16:04:18.625Z,10.33
2022-11-17T16:06:48.185Z,10.27
2022-11-17T16:09:17.232Z,10.35
2022-11-17T16:11:47.033Z,10.39
2022-11-17T16:14:16.351Z,10.39
2022-11-17T16:16:47.956Z,10.38
2022-11-17T16:19:17.953Z,10.28
2022-11-17T16:21:47.016Z,10.16
2022-11-17T16:24:15.948Z,10.19
2022-11-17T16:26:45.585Z,10.13
2022-11-17T16:29:14.316Z,10.14
2022-11-17T16:31:43.403Z,10.06
2022-11-17T16:34:17.877Z,10.02
2022-11-17T16:36:47.257Z,9.99
2022-11-17T16:39:19.961Z,9.95
2022-11-17T16:41:50.228Z,10.04
2022-11-17T16:44:20.277Z,10.01
2022-11-17T16:46:51.377Z,9.99
2022-11-17T16:49:21.344Z,10.08
2022-11-17T16:51:53.750Z,10.09
2022-11-17T16:54:22.805Z,10.06
2022-11-17T16:56:51.359Z,10.06
2022-11-17T16:59:20.559Z,9.94
2022-11-17T17:01:49.172Z,9.86
2022-11-17T17:04:18.394Z,9.79
2022-11-17T17:06:48.549Z,9.79
2022-11-17T17:09:19.642Z,9.80
2022-11-17T17:11:51.752Z,9.78
2022-11-17T17:14:20.274Z,9.75
2022-11-17T17:16:48.905Z,9.76
2022-11-17T17:19:19.152Z,9.78
2022-11-17T17:21:49.300Z,9.74
2022-11-17T17:24:18.209Z,9.74
2022-11-17T17:26:47.374Z,9.64
2022-11-17T17:29:15.984Z,9.64
2022-11-17T17:31:44.892Z,9.62
2022-11-17T17:34:15.396Z,9.67
2022-11-17T17:36:44.368Z,9.68
2022-11-17T17:39:16.540Z,9.65
2022-11-17T17:41:46.118Z,9.55
2022-11-17T17:44:16.772Z,9.19
2022-11-17T17:46:46.053Z,9.38
2022-11-17T17:49:16.451Z,9.32
2022-11-17T17:51:45.880Z,9.28
2022-11-17T17:54:18.507Z,9.17
2022-11-17T17:56:47.827Z,9.22
2022-11-17T17:59:17.217Z,9.21
2022-11-17T18:01:47.818Z,9.22
2022-11-17T18:04:17.579Z,9.06
2022-11-17T18:06:48.687Z,9.12
2022-11-17T18:09:20.979Z,9.07
2022-11-17T18:11:51.395Z,9.04
2022-11-17T18:14:24.279Z,8.88
2022-11-17T18:16:54.144Z,9.07
2022-11-17T18:19:27.076Z,8.90
2022-11-17T18:21:59.928Z,9.14
2022-11-17T18:24:29.858Z,9.17
2022-11-17T18:26:58.305Z,9.18
2022-11-17T18:29:27.704Z,9.17
2022-11-17T18:31:56.214Z,9.14
2022-11-17T18:34:26.478Z,9.22
2022-11-17T18:36:56.525Z,9.29
2022-11-17T18:39:27.403Z,9.28
2022-11-17T18:41:57.880Z,9.31
2022-11-17T18:44:26.439Z,9.27
2022-11-17T18:47:01.206Z,9.24
2022-11-17T18:49:31.531Z,9.29
2022-11-17T18:52:00.409Z,9.30
2022-11-17T18:54:28.925Z,9.26
2022-11-17T18:57:00.533Z,9.25
2022-11-17T18:59:29.351Z,9.28
2022-11-17T19:01:57.798Z,9.33
2022-11-17T19:04:26.283Z,9.28
2022-11-17T19:06:54.818Z,9.33
2022-11-17T19:09:23.373Z,9.29
2022-11-17T19:11:52.785Z,9.24
2022-11-17T19:14:23.719Z,9.38
2022-11-17T19:16:52.176Z,9.38
2022-11-17T19:19:21.513Z,9.39
2022-11-17T19:21:50.074Z,9.41
2022-11-17T19:24:18.599Z,9.42
2022-11-17T19:26:47.487Z,9.46
2022-11-17T19:29:17.448Z,9.41
2022-11-17T19:31:48.459Z,9.37
2022-11-17T19:34:17.373Z,9.33
2022-11-17T19:36:46.602Z,9.34
2022-11-17T19:39:17.027Z,9.31
2022-11-17T19:41:47.662Z,9.28
2022-11-17T19:44:16.822Z,9.28
2022-11-17T19:46:48.415Z,9.31
2022-11-17T19:49:17.186Z,9.28
2022-11-17T19:51:46.262Z,9.34
2022-11-17T19:54:15.629Z,9.38
2022-11-17T19:56:45.292Z,9.43
2022-11-17T19:59:16.471Z,9.47
2022-11-17T20:01:47.534Z,9.50
2022-11-17T20:04:16.478Z,9.52
2022-11-17T20:06:44.955Z,9.49
2022-11-17T20:09:15.379Z,9.27
2022-11-17T20:11:44.182Z,9.37
2022-11-17T20:14:14.398Z,9.37
2022-11-17T20:16:43.207Z,9.25
2022-11-17T20:19:14.221Z,9.30
2022-11-17T20:21:43.275Z,9.38
2022-11-17T20:24:12.743Z,9.44
2022-11-17T20:26:43.024Z,9.42
2022-11-17T20:29:11.551Z,9.39
2022-11-17T20:31:40.607Z,9.46
2022-11-17T20:34:13.828Z,9.48
2022-11-17T20:36:42.661Z,9.47
2022-11-17T20:39:11.217Z,9.45
2022-11-17T20:41:40.587Z,9.43
2022-11-17T20:44:23.769Z,9.46
2022-11-17T20:46:54.303Z,9.44
2022-11-17T20:49:24.827Z,9.24
2022-11-17T20:51:53.353Z,9.35
2022-11-17T20:54:21.853Z,9.41
2022-11-17T20:56:50.327Z,9.43
2022-11-17T20:59:20.349Z,9.47
2022-11-17T21:01:50.480Z,9.40
2022-11-17T21:04:19.430Z,9.45
2022-11-17T21:06:49.235Z,9.48
2022-11-17T21:09:18.664Z,9.39
2022-11-17T21:11:59.854Z,9.38
2022-11-17T21:14:29.255Z,9.42
2022-11-17T21:17:00.972Z,9.44
2022-11-17T21:19:31.641Z,9.42
2022-11-17T21:22:03.193Z,9.35
2022-11-17T21:24:31.636Z,9.35
2022-11-17T21:27:00.412Z,9.38
2022-11-17T21:29:29.374Z,9.32
2022-11-17T21:31:58.089Z,9.25
2022-11-17T21:34:26.522Z,9.28
2022-11-17T21:36:55.428Z,9.24
2022-11-17T21:39:25.284Z,9.31
2022-11-17T21:41:53.730Z,9.31
2022-11-17T21:44:22.453Z,9.30
2022-11-17T21:46:51.361Z,9.28
2022-11-17T21:49:19.928Z,9.28
2022-11-17T21:51:48.881Z,9.32
2022-11-17T21:54:17.580Z,9.38
2022-11-17T21:56:47.998Z,9.41
2022-11-17T21:59:18.035Z,9.41
2022-11-17T22:01:46.816Z,9.32
2022-11-17T22:04:16.642Z,9.30
2022-11-17T22:06:45.177Z,9.27
2022-11-17T22:09:14.698Z,9.30
2022-11-17T22:11:43.445Z,9.29
2022-11-17T22:14:15.243Z,9.28
2022-11-17T22:16:45.455Z,9.27
2022-11-17T22:19:15.783Z,9.29
2022-11-17T22:21:45.464Z,9.26
2022-11-17T22:24:15.234Z,9.22
2022-11-17T22:26:44.928Z,9.24
2022-11-17T22:29:17.106Z,9.22
2022-11-17T22:31:46.298Z,9.14
2022-11-17T22:34:15.453Z,9.29
2022-11-17T22:36:44.725Z,9.27
2022-11-17T22:39:13.531Z,9.20
2022-11-17T22:41:43.155Z,9.39
2022-11-17T22:44:15.727Z,9.42
2022-11-17T22:46:45.681Z,9.46
2022-11-17T22:49:14.631Z,9.50
2022-11-17T22:52:00.720Z,9.53
2022-11-17T22:54:29.202Z,9.55
2022-11-17T22:56:59.040Z,9.55
2022-11-17T22:59:30.302Z,9.58
2022-11-17T23:01:59.638Z,9.58
2022-11-17T23:04:28.912Z,9.62
2022-11-17T23:06:57.834Z,9.63
2022-11-17T23:09:26.381Z,9.64
2022-11-17T23:11:55.685Z,9.66
2022-11-17T23:14:24.106Z,9.68
2022-11-17T23:16:54.920Z,9.70
2022-11-17T23:19:24.132Z,9.67
2022-11-17T23:21:53.254Z,9.72
2022-11-17T23:24:21.886Z,9.69
2022-11-17T23:26:50.923Z,9.57
2022-11-17T23:29:20.414Z,9.49
2022-11-17T23:31:49.227Z,9.43
2022-11-17T23:34:20.123Z,9.35
2022-11-17T23:36:48.565Z,9.32
2022-11-17T23:39:18.403Z,9.30
2022-11-17T23:41:47.627Z,9.25
2022-11-17T23:44:16.945Z,9.21
2022-11-17T23:46:46.648Z,9.17
2022-11-17T23:49:16.026Z,9.22
2022-11-17T23:51:46.203Z,9.28
2022-11-17T23:54:15.307Z,9.25
2022-11-17T23:56:43.804Z,9.24
2022-11-17T23:59:12.906Z,9.26
